Hickman, Nebraska
Current Conditions -  °F | °C
As of 1:54 PM on Wednesday 28 Jan 2015 (Local Time) from KLNK Reporting Station
Clear Clear  
Wind Chill: 59°   Ceiling: Unl
Heat Index: 59°   Visibility: 10mi
Dew Point: 35°   Wind: 5mph
Humidity: 41%   Direction: 200°SSW
Pressure: 29.69"   Gusts: NA
Location:  40.62°N, 96.63°W
Report Text: KLNK 281954Z 20004KT 10SM CLR 15/02 A2969 RMK AO2 SLP053 T01500017
Loading
Personal Weather Stations






























Interactive Weather Map New forecast layout! Learn more

10-Day Weather Forecast

Advertisements
Track Severe Weather on mobile